Zielona Gora Babimost Airport

Current Flights

Departures
Arrivals
Info
Name: Zielona Gora Babimost Airport
Identifier:  IEG/EPZG
Local Time:  27. Jun 06:04
City
Zielona Gora
  Poland

Flights per Day
2 flights
Distance: 556km (345mi)
Punctuality
75% (0 flights per day delayed)
Delay Average: 8 minutes
Current Weather
 18 C (Humidity: 82%)
  6kt (11km/h / 6mph) from 310°
  Few clouds at 1,800 feet (548 meter)
  Broken clouds at 2,300 feet (701 meter)
  9km (6 mi.)
 METAR EPZG 270330Z 31006KT 270V020 9999 FEW018 BKN023 18/15 Q1021

Current Delays

Departures
N/A
Arrivals
N/A

Destinations

Top Destinations
Airport Flights
per week
Seats
per week
  Warsaw (WAW) 15 964 2 137
  Oslo (OSL) 0 - 0 0
  Antalya (AYT) 0 - 0 0
  Groningen (GRQ) 0 - 0 0
  Bodrum (BJV) 0 - 0 0

Airlines & Planes

Top Airlines
Airline Flights
per Day
Seats
per Day
  LOT - Polish Airlines 2 137
  Onur Air 0 -
  Sundair 0 -
Top Plane Types
Model Flights Seats
Bombardier Dash 8-400 1.8/day 137/day 137.8
Bombardier Dash 8-400 0.4/day - 0
Airbus A320 0.1/day - 0
Boeing B737-500 0.1/day - 0